createdAt,value
2023-03-29T00:01:36.164Z,1009.80
2023-03-29T00:04:01.131Z,1009.72
2023-03-29T00:06:32.067Z,1009.67
2023-03-29T00:09:04.737Z,1009.61
2023-03-29T00:11:37.842Z,1009.56
2023-03-29T00:14:11.005Z,1009.50
2023-03-29T00:16:44.096Z,1009.46
2023-03-29T00:19:17.057Z,1009.43
2023-03-29T00:21:50.237Z,1009.40
2023-03-29T00:24:23.860Z,1009.38
2023-03-29T00:26:57.118Z,1009.36
2023-03-29T00:29:29.857Z,1009.37
2023-03-29T00:32:02.736Z,1009.34
2023-03-29T00:34:36.099Z,1009.34
2023-03-29T00:37:09.022Z,1009.33
2023-03-29T00:39:41.954Z,1009.33
2023-03-29T00:42:15.093Z,1009.29
2023-03-29T00:44:48.177Z,1009.27
2023-03-29T00:47:21.070Z,1009.24
2023-03-29T00:49:54.124Z,1009.21
2023-03-29T00:52:26.889Z,1009.18
2023-03-29T00:55:00.164Z,1009.17
2023-03-29T00:57:33.158Z,1009.15
2023-03-29T01:00:06.009Z,1009.12
2023-03-29T01:02:39.135Z,1009.10
2023-03-29T01:05:12.073Z,1009.07
2023-03-29T01:07:45.883Z,1009.06
2023-03-29T01:10:19.183Z,1009.04
2023-03-29T01:12:53.173Z,1009.03
2023-03-29T01:15:25.812Z,1009.02
2023-03-29T01:17:59.192Z,1009.01
2023-03-29T01:20:31.955Z,1008.99
2023-03-29T01:23:04.856Z,1008.98
2023-03-29T01:25:38.240Z,1008.98
2023-03-29T01:28:10.857Z,1008.99
2023-03-29T01:30:44.452Z,1008.98
2023-03-29T01:33:18.142Z,1008.93
2023-03-29T01:35:51.274Z,1008.88
2023-03-29T01:38:23.909Z,1008.85
2023-03-29T01:40:56.892Z,1008.83
2023-03-29T01:43:30.048Z,1008.81
2023-03-29T01:46:07.192Z,1008.80
2023-03-29T01:48:41.203Z,1008.76
2023-03-29T01:51:15.124Z,1008.73
2023-03-29T01:53:48.405Z,1008.71
2023-03-29T01:56:22.215Z,1008.66
2023-03-29T01:58:55.263Z,1008.61
2023-03-29T02:01:28.360Z,1008.59
2023-03-29T02:04:02.897Z,1008.57
2023-03-29T02:06:36.933Z,1008.55
2023-03-29T02:09:10.208Z,1008.55
2023-03-29T02:11:43.258Z,1008.54
2023-03-29T02:14:16.176Z,1008.51
2023-03-29T02:16:48.906Z,1008.46
2023-03-29T02:19:21.950Z,1008.42
2023-03-29T02:21:55.255Z,1008.37
2023-03-29T02:24:28.015Z,1008.35
2023-03-29T02:27:01.313Z,1008.30
2023-03-29T02:29:34.446Z,1008.27
2023-03-29T02:32:08.122Z,1008.24
2023-03-29T02:34:41.169Z,1008.22
2023-03-29T02:37:15.444Z,1008.18
2023-03-29T02:39:49.143Z,1008.15
2023-03-29T02:42:22.360Z,1008.12
2023-03-29T02:44:55.041Z,1008.09
2023-03-29T02:47:28.167Z,1008.06
2023-03-29T02:50:01.295Z,1008.03
2023-03-29T02:52:34.303Z,1007.99
2023-03-29T02:55:07.036Z,1007.94
2023-03-29T02:57:40.360Z,1007.90
2023-03-29T03:00:13.247Z,1007.86
2023-03-29T03:02:46.279Z,1007.84
2023-03-29T03:05:19.177Z,1007.85
2023-03-29T03:08:06.262Z,1007.82
2023-03-29T03:10:39.072Z,1007.78
2023-03-29T03:13:17.908Z,1007.78
2023-03-29T03:15:51.249Z,1007.79
2023-03-29T03:18:24.305Z,1007.79
2023-03-29T03:20:57.218Z,1007.77
2023-03-29T03:23:33.162Z,1007.74
2023-03-29T03:26:06.021Z,1007.73
2023-03-29T03:28:39.811Z,1007.73
2023-03-29T03:31:14.139Z,1007.72
2023-03-29T03:33:47.218Z,1007.71
2023-03-29T03:36:20.216Z,1007.70
2023-03-29T03:38:53.373Z,1007.69
2023-03-29T03:41:26.430Z,1007.66
2023-03-29T03:43:59.499Z,1007.66
2023-03-29T03:46:33.102Z,1007.64
2023-03-29T03:49:06.027Z,1007.64
2023-03-29T03:51:39.162Z,1007.63
2023-03-29T03:54:12.327Z,1007.62
2023-03-29T03:56:45.239Z,1007.60
2023-03-29T03:59:18.070Z,1007.60
2023-03-29T04:01:52.542Z,1007.60
2023-03-29T04:04:26.246Z,1007.60
2023-03-29T04:07:00.188Z,1007.57
2023-03-29T04:09:33.402Z,1007.57
2023-03-29T04:12:06.070Z,1007.56
2023-03-29T04:14:39.154Z,1007.56
2023-03-29T04:17:12.360Z,1007.56
2023-03-29T04:19:45.374Z,1007.54
2023-03-29T04:22:18.353Z,1007.54
2023-03-29T04:24:51.488Z,1007.55
2023-03-29T04:27:30.646Z,1007.55
2023-03-29T04:30:04.384Z,1007.55
2023-03-29T04:32:37.295Z,1007.54
2023-03-29T04:35:10.263Z,1007.54
2023-03-29T04:37:43.555Z,1007.55
2023-03-29T04:40:17.394Z,1007.56
2023-03-29T04:42:50.272Z,1007.57
2023-03-29T04:45:23.184Z,1007.57
2023-03-29T04:47:56.285Z,1007.58
2023-03-29T04:50:29.176Z,1007.55
2023-03-29T04:53:02.137Z,1007.55
2023-03-29T04:55:35.347Z,1007.54
2023-03-29T04:58:08.155Z,1007.54
2023-03-29T05:00:41.325Z,1007.52
2023-03-29T05:03:14.450Z,1007.51
2023-03-29T05:05:47.536Z,1007.52
2023-03-29T05:08:20.415Z,1007.54
2023-03-29T05:10:53.567Z,1007.55
2023-03-29T05:13:26.295Z,1007.57
2023-03-29T05:15:59.508Z,1007.59
2023-03-29T05:18:32.287Z,1007.61
2023-03-29T05:21:05.473Z,1007.61
2023-03-29T05:23:38.420Z,1007.61
2023-03-29T05:26:11.532Z,1007.62
2023-03-29T05:28:44.314Z,1007.62
2023-03-29T05:31:17.360Z,1007.62
2023-03-29T05:33:50.602Z,1007.61
2023-03-29T05:36:23.481Z,1007.62
2023-03-29T05:38:56.474Z,1007.63
2023-03-29T05:41:29.584Z,1007.64
2023-03-29T05:44:02.334Z,1007.65
2023-03-29T05:46:35.490Z,1007.64
2023-03-29T05:49:08.475Z,1007.64
2023-03-29T05:51:41.355Z,1007.64
2023-03-29T05:54:14.594Z,1007.64
2023-03-29T05:56:47.634Z,1007.62
2023-03-29T05:59:20.334Z,1007.62
2023-03-29T06:01:53.619Z,1007.63
2023-03-29T06:04:26.524Z,1007.62
2023-03-29T06:06:59.241Z,1007.62
2023-03-29T06:09:32.399Z,1007.62
2023-03-29T06:12:05.292Z,1007.62
2023-03-29T06:14:38.326Z,1007.63
2023-03-29T06:17:17.221Z,1007.63
2023-03-29T06:19:50.760Z,1007.64
2023-03-29T06:22:24.584Z,1007.66
2023-03-29T06:24:57.646Z,1007.68
2023-03-29T06:27:30.441Z,1007.70
2023-03-29T06:30:03.573Z,1007.72
2023-03-29T06:32:36.416Z,1007.74
2023-03-29T06:35:09.303Z,1007.75
2023-03-29T06:37:42.648Z,1007.76
2023-03-29T06:40:15.301Z,1007.77
2023-03-29T06:42:49.017Z,1007.76
2023-03-29T06:45:24.351Z,1007.77
2023-03-29T06:47:55.346Z,1007.76
2023-03-29T06:50:28.645Z,1007.75
2023-03-29T06:53:01.314Z,1007.76
2023-03-29T06:55:34.830Z,1007.77
2023-03-29T06:58:08.355Z,1007.77
2023-03-29T07:00:41.308Z,1007.77
2023-03-29T07:03:14.700Z,1007.79
2023-03-29T07:05:47.835Z,1007.81
2023-03-29T07:08:21.618Z,1007.84
2023-03-29T07:10:54.670Z,1007.87
2023-03-29T07:13:27.770Z,1007.86
2023-03-29T07:16:00.868Z,1007.88
2023-03-29T07:18:34.679Z,1007.88
2023-03-29T07:21:07.380Z,1007.88
2023-03-29T07:23:40.746Z,1007.90
2023-03-29T07:26:13.906Z,1007.90
2023-03-29T07:28:46.914Z,1007.90
2023-03-29T07:31:20.879Z,1007.93
2023-03-29T07:33:54.635Z,1007.95
2023-03-29T07:36:28.811Z,1007.95
2023-03-29T07:39:01.729Z,1007.97
2023-03-29T07:41:34.724Z,1007.99
2023-03-29T07:44:07.421Z,1007.99
2023-03-29T07:46:40.538Z,1008.01
2023-03-29T07:49:13.387Z,1008.02
2023-03-29T07:51:46.740Z,1008.03
2023-03-29T07:54:19.724Z,1008.04
2023-03-29T07:56:52.747Z,1008.04
2023-03-29T07:59:25.759Z,1008.05
2023-03-29T08:01:58.877Z,1008.06
2023-03-29T08:04:32.911Z,1008.06
2023-03-29T08:07:05.430Z,1008.06
2023-03-29T08:09:38.719Z,1008.07
2023-03-29T08:12:11.521Z,1008.07
2023-03-29T08:14:44.853Z,1008.06
2023-03-29T08:17:17.449Z,1008.06
2023-03-29T08:19:51.778Z,1008.06
2023-03-29T08:22:23.727Z,1008.05
2023-03-29T08:24:56.521Z,1008.03
2023-03-29T08:27:43.478Z,1008.01
2023-03-29T08:30:16.798Z,1008.03
2023-03-29T08:32:52.167Z,1008.04
2023-03-29T08:35:23.055Z,1008.04
2023-03-29T08:37:56.608Z,1008.04
2023-03-29T08:40:29.945Z,1008.03
2023-03-29T08:43:03.594Z,1008.03
2023-03-29T08:45:36.618Z,1008.03
2023-03-29T08:48:09.473Z,1008.02
2023-03-29T08:50:42.612Z,1008.03
2023-03-29T08:53:29.742Z,1008.03
2023-03-29T08:56:02.801Z,1008.03
2023-03-29T08:58:35.880Z,1008.04
2023-03-29T09:01:08.788Z,1008.03
2023-03-29T09:03:41.997Z,1008.04
2023-03-29T09:06:14.783Z,1008.04
2023-03-29T09:08:47.938Z,1008.06
2023-03-29T09:11:21.809Z,1008.07
2023-03-29T09:13:54.619Z,1008.08
2023-03-29T09:16:27.963Z,1008.06
2023-03-29T09:19:00.666Z,1008.05
2023-03-29T09:21:33.901Z,1008.03
2023-03-29T09:24:06.805Z,1008.00
2023-03-29T09:26:39.867Z,1007.99
2023-03-29T09:29:12.533Z,1007.98
2023-03-29T09:31:45.951Z,1007.96
2023-03-29T09:34:18.624Z,1007.96
2023-03-29T09:36:51.766Z,1007.97
2023-03-29T09:39:24.732Z,1007.96
2023-03-29T09:41:57.933Z,1007.95
2023-03-29T09:44:33.852Z,1007.95
2023-03-29T09:47:06.583Z,1007.94
2023-03-29T09:49:39.902Z,1007.91
2023-03-29T09:52:12.852Z,1007.92
2023-03-29T09:54:45.705Z,1007.92
2023-03-29T09:57:19.025Z,1007.90
2023-03-29T09:59:51.853Z,1007.90
2023-03-29T10:02:24.972Z,1007.89
2023-03-29T10:04:57.992Z,1007.87
2023-03-29T10:07:30.746Z,1007.86
2023-03-29T10:10:03.866Z,1007.84
2023-03-29T10:12:36.976Z,1007.81
2023-03-29T10:15:16.756Z,1007.78
2023-03-29T10:17:43.048Z,1007.74
2023-03-29T10:20:15.816Z,1007.70
2023-03-29T10:22:48.963Z,1007.70
2023-03-29T10:25:21.664Z,1007.68
2023-03-29T10:27:54.961Z,1007.66
2023-03-29T10:30:28.109Z,1007.66
2023-03-29T10:33:02.125Z,1007.62
2023-03-29T10:35:35.153Z,1007.59
2023-03-29T10:38:08.932Z,1007.56
2023-03-29T10:40:42.024Z,1007.53
2023-03-29T10:43:14.928Z,1007.50
2023-03-29T10:45:48.059Z,1007.45
2023-03-29T10:48:20.745Z,1007.41
2023-03-29T10:50:53.945Z,1007.38
2023-03-29T10:53:26.951Z,1007.37
2023-03-29T10:56:00.166Z,1007.35
2023-03-29T10:58:34.055Z,1007.31
2023-03-29T11:01:06.752Z,1007.29
2023-03-29T11:03:40.572Z,1007.26
2023-03-29T11:06:16.899Z,1007.23
2023-03-29T11:08:50.082Z,1007.21
2023-03-29T11:11:24.141Z,1007.19
2023-03-29T11:13:59.817Z,1007.18
2023-03-29T11:16:30.947Z,1007.15
2023-03-29T11:19:03.902Z,1007.14
2023-03-29T11:21:36.958Z,1007.13
2023-03-29T11:24:09.963Z,1007.12
2023-03-29T11:26:43.147Z,1007.13
2023-03-29T11:29:15.730Z,1007.13
2023-03-29T11:31:48.866Z,1007.13
2023-03-29T11:34:21.776Z,1007.13
2023-03-29T11:36:54.850Z,1007.12
2023-03-29T11:39:28.043Z,1007.12
2023-03-29T11:42:00.885Z,1007.12
2023-03-29T11:44:34.042Z,1007.09
2023-03-29T11:47:06.902Z,1007.08
2023-03-29T11:49:39.904Z,1007.07
2023-03-29T11:52:12.752Z,1007.06
2023-03-29T11:54:45.768Z,1007.04
2023-03-29T11:57:18.824Z,1007.00
2023-03-29T11:59:51.880Z,1006.98
2023-03-29T12:02:25.186Z,1006.95
2023-03-29T12:04:57.991Z,1006.94
2023-03-29T12:07:30.807Z,1006.92
2023-03-29T12:10:03.890Z,1006.92
2023-03-29T12:12:36.914Z,1006.89
2023-03-29T12:15:09.790Z,1006.86
2023-03-29T12:17:42.809Z,1006.84
2023-03-29T12:20:15.822Z,1006.80
2023-03-29T12:22:48.826Z,1006.77
2023-03-29T12:25:23.327Z,1006.72
2023-03-29T12:27:54.926Z,1006.69
2023-03-29T12:30:28.194Z,1006.67
2023-03-29T12:33:00.880Z,1006.66
2023-03-29T12:35:33.972Z,1006.66
2023-03-29T12:38:06.980Z,1006.65
2023-03-29T12:40:39.976Z,1006.64
2023-03-29T12:43:12.832Z,1006.62
2023-03-29T12:45:45.985Z,1006.60
2023-03-29T12:48:18.834Z,1006.59
2023-03-29T12:50:52.005Z,1006.57
2023-03-29T12:53:24.854Z,1006.55
2023-03-29T12:55:57.958Z,1006.51
2023-03-29T12:58:30.995Z,1006.50
2023-03-29T13:01:05.794Z,1006.48
2023-03-29T13:03:37.323Z,1006.45
2023-03-29T13:06:11.060Z,1006.42
2023-03-29T13:08:44.141Z,1006.37
2023-03-29T13:11:16.870Z,1006.34
2023-03-29T13:13:50.380Z,1006.31
2023-03-29T13:16:24.399Z,1006.28
2023-03-29T13:18:58.242Z,1006.24
2023-03-29T13:21:31.086Z,1006.20
2023-03-29T13:24:04.011Z,1006.17
2023-03-29T13:26:37.086Z,1006.15
2023-03-29T13:29:10.006Z,1006.12
2023-03-29T13:31:43.012Z,1006.09
2023-03-29T13:34:16.061Z,1006.05
2023-03-29T13:36:49.091Z,1006.04
2023-03-29T13:39:21.937Z,1006.03
2023-03-29T13:41:54.914Z,1006.01
2023-03-29T13:44:27.913Z,1005.99
2023-03-29T13:47:01.150Z,1005.96
2023-03-29T13:49:34.285Z,1005.93
2023-03-29T13:52:07.073Z,1005.89
2023-03-29T13:54:40.017Z,1005.87
2023-03-29T13:57:13.155Z,1005.81
2023-03-29T13:59:46.126Z,1005.77
2023-03-29T14:02:19.011Z,1005.73
2023-03-29T14:04:52.258Z,1005.71
2023-03-29T14:07:25.026Z,1005.69
2023-03-29T14:09:58.157Z,1005.66
2023-03-29T14:12:31.324Z,1005.63
2023-03-29T14:15:04.095Z,1005.61
2023-03-29T14:17:37.162Z,1005.58
2023-03-29T14:20:10.338Z,1005.52
2023-03-29T14:22:43.111Z,1005.46
2023-03-29T14:25:16.254Z,1005.43
2023-03-29T14:27:49.011Z,1005.40
2023-03-29T14:30:22.001Z,1005.36
2023-03-29T14:32:55.151Z,1005.32
2023-03-29T14:35:28.345Z,1005.27
2023-03-29T14:38:01.352Z,1005.26
2023-03-29T14:40:34.349Z,1005.25
2023-03-29T14:43:07.331Z,1005.24
2023-03-29T14:45:40.214Z,1005.24
2023-03-29T14:48:13.202Z,1005.24
2023-03-29T14:50:46.196Z,1005.21
2023-03-29T14:53:19.387Z,1005.19
2023-03-29T14:55:52.378Z,1005.16
2023-03-29T14:58:25.466Z,1005.10
2023-03-29T15:01:01.118Z,1005.04
2023-03-29T15:03:34.183Z,1005.00
2023-03-29T15:06:07.412Z,1004.98
2023-03-29T15:08:44.007Z,1004.94
2023-03-29T15:11:13.324Z,1004.91
2023-03-29T15:13:46.541Z,1004.91
2023-03-29T15:16:20.359Z,1004.90
2023-03-29T15:18:53.421Z,1004.90
2023-03-29T15:21:26.433Z,1004.90
2023-03-29T15:23:59.381Z,1004.88
2023-03-29T15:26:32.068Z,1004.87
2023-03-29T15:29:05.110Z,1004.88
2023-03-29T15:31:38.346Z,1004.90
2023-03-29T15:34:11.104Z,1004.93
2023-03-29T15:36:44.376Z,1004.95
2023-03-29T15:39:17.388Z,1004.97
2023-03-29T15:41:50.295Z,1004.97
2023-03-29T15:44:23.399Z,1004.93
2023-03-29T15:46:56.405Z,1004.93
2023-03-29T15:49:29.239Z,1004.91
2023-03-29T15:52:02.406Z,1004.87
2023-03-29T15:54:35.395Z,1004.84
2023-03-29T15:57:08.373Z,1004.83
2023-03-29T15:59:41.294Z,1004.80
2023-03-29T16:02:14.534Z,1004.78
2023-03-29T16:04:47.285Z,1004.76
2023-03-29T16:07:20.194Z,1004.76
2023-03-29T16:09:53.168Z,1004.75
2023-03-29T16:12:26.183Z,1004.75
2023-03-29T16:14:59.156Z,1004.76
2023-03-29T16:17:32.338Z,1004.76
2023-03-29T16:20:05.461Z,1004.76
2023-03-29T16:22:38.484Z,1004.74
2023-03-29T16:25:11.580Z,1004.73
2023-03-29T16:27:44.169Z,1004.71
2023-03-29T16:30:17.209Z,1004.70
2023-03-29T16:32:50.576Z,1004.67
2023-03-29T16:35:23.185Z,1004.64
2023-03-29T16:37:56.321Z,1004.61
2023-03-29T16:40:29.232Z,1004.57
2023-03-29T16:43:02.303Z,1004.53
2023-03-29T16:45:35.482Z,1004.49
2023-03-29T16:48:11.540Z,1004.46
2023-03-29T16:50:44.365Z,1004.44
2023-03-29T16:53:17.194Z,1004.40
2023-03-29T16:55:50.338Z,1004.38
2023-03-29T16:58:23.219Z,1004.35
2023-03-29T17:00:56.310Z,1004.33
2023-03-29T17:03:29.382Z,1004.31
2023-03-29T17:06:02.420Z,1004.28
2023-03-29T17:08:35.244Z,1004.24
2023-03-29T17:11:08.437Z,1004.20
2023-03-29T17:13:41.581Z,1004.16
2023-03-29T17:16:14.399Z,1004.14
2023-03-29T17:18:47.334Z,1004.12
2023-03-29T17:21:20.254Z,1004.11
2023-03-29T17:23:53.441Z,1004.09
2023-03-29T17:26:26.444Z,1004.09
2023-03-29T17:28:59.366Z,1004.06
2023-03-29T17:31:32.425Z,1004.04
2023-03-29T17:34:05.513Z,1004.03
2023-03-29T17:36:38.515Z,1004.01
2023-03-29T17:39:11.377Z,1003.99
2023-03-29T17:41:44.469Z,1003.97
2023-03-29T17:44:20.201Z,1003.97
2023-03-29T17:46:53.395Z,1003.97
2023-03-29T17:49:26.263Z,1003.97
2023-03-29T17:51:59.508Z,1003.97
2023-03-29T17:54:32.429Z,1003.95
2023-03-29T17:57:07.540Z,1003.94
2023-03-29T17:59:40.607Z,1003.93
2023-03-29T18:02:13.349Z,1003.90
2023-03-29T18:04:49.187Z,1003.89
2023-03-29T18:07:22.334Z,1003.88
2023-03-29T18:09:55.316Z,1003.87
2023-03-29T18:12:28.361Z,1003.85
2023-03-29T18:15:01.673Z,1003.85
2023-03-29T18:17:34.342Z,1003.86
2023-03-29T18:20:07.307Z,1003.88
2023-03-29T18:22:40.672Z,1003.90
2023-03-29T18:25:13.588Z,1003.92
2023-03-29T18:27:46.684Z,1003.93
2023-03-29T18:30:19.687Z,1003.93
2023-03-29T18:32:52.506Z,1003.96
2023-03-29T18:35:28.279Z,1003.96
2023-03-29T18:38:01.474Z,1003.94
2023-03-29T18:40:34.584Z,1003.94
2023-03-29T18:43:07.735Z,1003.97
2023-03-29T18:45:40.475Z,1003.95
2023-03-29T18:48:13.557Z,1003.93
2023-03-29T18:50:46.513Z,1003.92
2023-03-29T18:53:19.411Z,1003.90
2023-03-29T18:55:52.670Z,1003.89
2023-03-29T18:58:25.774Z,1003.88
2023-03-29T19:00:58.738Z,1003.85
2023-03-29T19:03:31.810Z,1003.85
2023-03-29T19:06:05.027Z,1003.85
2023-03-29T19:08:37.709Z,1003.85
2023-03-29T19:11:10.619Z,1003.88
2023-03-29T19:13:43.553Z,1003.88
2023-03-29T19:16:16.512Z,1003.88
2023-03-29T19:18:49.780Z,1003.87
2023-03-29T19:21:22.716Z,1003.84
2023-03-29T19:23:55.678Z,1003.80
2023-03-29T19:26:28.770Z,1003.75
2023-03-29T19:29:01.750Z,1003.70
2023-03-29T19:31:34.498Z,1003.64
2023-03-29T19:34:07.557Z,1003.59
2023-03-29T19:36:40.593Z,1003.57
2023-03-29T19:39:13.588Z,1003.55
2023-03-29T19:41:46.626Z,1003.53
2023-03-29T19:44:19.483Z,1003.48
2023-03-29T19:46:52.758Z,1003.44
2023-03-29T19:49:25.459Z,1003.39
2023-03-29T19:51:58.772Z,1003.35
2023-03-29T19:54:31.470Z,1003.30
2023-03-29T19:57:04.614Z,1003.25
2023-03-29T19:59:37.733Z,1003.19
2023-03-29T20:02:11.000Z,1003.15
2023-03-29T20:04:43.776Z,1003.09
2023-03-29T20:07:16.472Z,1003.02
2023-03-29T20:09:49.733Z,1002.96
2023-03-29T20:12:22.486Z,1002.90
2023-03-29T20:14:55.886Z,1002.84
2023-03-29T20:17:28.511Z,1002.82
2023-03-29T20:20:01.910Z,1002.80
2023-03-29T20:22:34.522Z,1002.77
2023-03-29T20:25:07.691Z,1002.73
2023-03-29T20:27:40.531Z,1002.70
2023-03-29T20:30:13.663Z,1002.68
2023-03-29T20:32:50.491Z,1002.64
2023-03-29T20:35:23.509Z,1002.61
2023-03-29T20:37:56.534Z,1002.57
2023-03-29T20:40:29.966Z,1002.55
2023-03-29T20:43:02.845Z,1002.51
2023-03-29T20:45:49.841Z,1002.48
2023-03-29T20:48:08.900Z,1002.43
2023-03-29T20:50:41.840Z,1002.38
2023-03-29T20:53:14.945Z,1002.35
2023-03-29T20:55:48.241Z,1002.32
2023-03-29T20:58:20.857Z,1002.29
2023-03-29T21:00:53.588Z,1002.26
2023-03-29T21:03:26.909Z,1002.26
2023-03-29T21:05:59.920Z,1002.26
2023-03-29T21:08:32.872Z,1002.23
2023-03-29T21:11:05.693Z,1002.21
2023-03-29T21:13:38.577Z,1002.18
2023-03-29T21:16:11.787Z,1002.14
2023-03-29T21:18:44.557Z,1002.11
2023-03-29T21:21:17.588Z,1002.09
2023-03-29T21:23:50.928Z,1002.07
2023-03-29T21:26:23.614Z,1002.05
2023-03-29T21:29:00.772Z,1002.01
2023-03-29T21:31:34.170Z,1001.98
2023-03-29T21:34:07.912Z,1001.96
2023-03-29T21:36:40.856Z,1001.93
2023-03-29T21:39:13.626Z,1001.92
2023-03-29T21:41:46.615Z,1001.90
2023-03-29T21:44:19.888Z,1001.88
2023-03-29T21:46:53.019Z,1001.89
2023-03-29T21:49:26.084Z,1001.89
2023-03-29T21:54:50.040Z,1001.87
2023-03-29T21:57:23.025Z,1001.85
2023-03-29T21:59:56.078Z,1001.84
2023-03-29T22:02:30.096Z,1001.83
2023-03-29T22:05:02.994Z,1001.82
2023-03-29T22:07:35.975Z,1001.80
2023-03-29T22:10:08.918Z,1001.78
2023-03-29T22:12:41.920Z,1001.77
2023-03-29T22:15:14.964Z,1001.76
2023-03-29T22:17:48.279Z,1001.75
2023-03-29T22:20:22.019Z,1001.73
2023-03-29T22:22:54.993Z,1001.71
2023-03-29T22:25:27.944Z,1001.69
2023-03-29T22:28:01.089Z,1001.68
2023-03-29T22:30:33.823Z,1001.69
2023-03-29T22:33:07.146Z,1001.67
2023-03-29T22:35:39.732Z,1001.66
2023-03-29T22:38:12.948Z,1001.66
2023-03-29T22:40:46.084Z,1001.65
2023-03-29T22:43:18.733Z,1001.63
2023-03-29T22:45:52.090Z,1001.60
2023-03-29T22:48:24.870Z,1001.61
2023-03-29T22:50:58.015Z,1001.63
2023-03-29T22:53:30.706Z,1001.65
2023-03-29T22:56:03.987Z,1001.66
2023-03-29T22:58:37.084Z,1001.66
2023-03-29T23:01:10.016Z,1001.64
2023-03-29T23:03:42.750Z,1001.67
2023-03-29T23:06:16.018Z,1001.69
2023-03-29T23:08:48.733Z,1001.69
2023-03-29T23:11:22.083Z,1001.67
2023-03-29T23:13:54.880Z,1001.66
2023-03-29T23:16:28.088Z,1001.65
2023-03-29T23:19:01.179Z,1001.64
2023-03-29T23:21:34.123Z,1001.62
2023-03-29T23:24:07.324Z,1001.62
2023-03-29T23:26:41.195Z,1001.58
2023-03-29T23:29:14.179Z,1001.53
2023-03-29T23:31:47.128Z,1001.48
2023-03-29T23:34:20.085Z,1001.43
2023-03-29T23:36:53.104Z,1001.34
2023-03-29T23:39:26.164Z,1001.25
2023-03-29T23:41:59.307Z,1001.20
2023-03-29T23:44:33.093Z,1001.16
2023-03-29T23:47:06.231Z,1001.12
2023-03-29T23:49:39.225Z,1001.08
2023-03-29T23:52:12.165Z,1001.06
2023-03-29T23:54:44.792Z,1001.06
2023-03-29T23:57:18.253Z,1001.06
2023-03-29T23:59:51.107Z,1001.08
